Terminal Aerodrome Forecast
Issued by NWS

Current Version | Previous Version | Graphics & Text | Print | Product List | Glossary On
Versions: 1 2 3 4 5 6 7 8 9 10 11 12 13 14 15 16 17 18 19
000
FTUS41 KPBZ 221734
TAFHLG
TAF
KHLG 221734Z 2218/2318 22008KT P6SM OVC012
     FM222000 23008KT P6SM BKN020
     FM222200 23007KT P6SM VCTS BKN080CB
      TEMPO 2223/2301 VRB10G20KT 5SM TSRA
     FM230300 25005KT P6SM VCSH BKN025
     FM230600 30005KT P6SM BKN010
     FM230900 33005KT P6SM SCT008=

USA.gov is the U.S. government's official web portal to all federal, state and local government web resources and services.